Time,TemperatureF,DewpointF,PressureIn,WindDirection,WindDirectionDegrees,WindSpeedMPH,WindSpeedGustMPH,Humidity,HourlyPrecipIn,Conditions,Clouds,dailyrainin,SoftwareType,DateUTC
2013-08-04 00:13:00,62.9,61.0,30.07,East,90,0.0,0.0,93,0.00,,,0.00,weatherlink.com 1.10,2013-08-04 07:13:00,
2013-08-04 00:28:00,62.9,61.0,30.06,East,90,0.0,0.0,93,0.00,,,0.00,weatherlink.com 1.10,2013-08-04 07:28:00,
2013-08-04 00:43:00,62.9,61.0,30.06,East,90,0.0,0.0,93,0.00,,,0.00,weatherlink.com 1.10,2013-08-04 07:43:00,
2013-08-04 00:58:00,62.8,61.0,30.05,East,90,0.0,0.0,93,0.00,,,0.00,weatherlink.com 1.10,2013-08-04 07:58:00,
2013-08-04 01:13:00,62.7,61.0,30.05,East,90,0.0,0.0,93,0.00,,,0.00,weatherlink.com 1.10,2013-08-04 08:13:00,
2013-08-04 01:28:00,62.6,61.0,30.05,East,91,0.0,0.0,94,0.00,,,0.00,weatherlink.com 1.10,2013-08-04 08:28:00,
2013-08-04 01:43:00,62.5,61.0,30.05,East,91,0.0,0.0,94,0.00,,,0.00,weatherlink.com 1.10,2013-08-04 08:43:00,
2013-08-04 01:58:00,62.5,61.0,30.05,East,91,0.0,0.0,94,0.00,,,0.00,weatherlink.com 1.10,2013-08-04 08:58:00,
2013-08-04 02:13:00,62.4,60.0,30.05,East,91,0.0,0.0,93,0.00,,,0.00,weatherlink.com 1.10,2013-08-04 09:13:00,
2013-08-04 02:28:00,62.2,60.0,30.05,East,91,0.0,0.0,92,0.00,,,0.00,weatherlink.com 1.10,2013-08-04 09:28:00,
2013-08-04 02:43:00,61.9,60.0,30.04,East,91,0.0,0.0,92,0.00,,,0.00,weatherlink.com 1.10,2013-08-04 09:43:00,
2013-08-04 02:58:00,61.6,59.0,30.05,East,91,0.0,0.0,91,0.00,,,0.00,weatherlink.com 1.10,2013-08-04 09:58:00,
2013-08-04 03:14:00,61.5,59.0,30.05,East,91,0.0,0.0,91,0.00,,,0.00,weatherlink.com 1.10,2013-08-04 10:14:00,
2013-08-04 03:29:00,61.4,59.0,30.05,East,91,0.0,0.0,92,0.00,,,0.00,weatherlink.com 1.10,2013-08-04 10:29:00,
2013-08-04 03:43:00,61.3,59.0,30.05,East,91,0.0,0.0,92,0.00,,,0.00,weatherlink.com 1.10,2013-08-04 10:43:00,
2013-08-04 03:59:00,61.3,59.0,30.04,East,91,0.0,0.0,93,0.00,,,0.00,weatherlink.com 1.10,2013-08-04 10:59:00,
2013-08-04 04:14:00,61.2,59.0,30.04,East,91,0.0,0.0,93,0.00,,,0.00,weatherlink.com 1.10,2013-08-04 11:14:00,
2013-08-04 04:29:00,61.1,59.0,30.04,East,91,0.0,0.0,93,0.00,,,0.00,weatherlink.com 1.10,2013-08-04 11:29:00,
2013-08-04 04:44:00,61.1,59.0,30.04,East,91,0.0,0.0,93,0.00,,,0.00,weatherlink.com 1.10,2013-08-04 11:44:00,
2013-08-04 04:59:00,61.0,59.0,30.05,East,91,0.0,0.0,92,0.00,,,0.00,weatherlink.com 1.10,2013-08-04 11:59:00,
2013-08-04 05:13:00,60.9,59.0,30.05,East,91,0.0,0.0,93,0.00,,,0.00,weatherlink.com 1.10,2013-08-04 12:13:00,
2013-08-04 05:29:00,60.8,59.0,30.05,East,91,0.0,0.0,93,0.00,,,0.00,weatherlink.com 1.10,2013-08-04 12:29:00,
2013-08-04 05:44:00,60.7,59.0,30.05,East,91,0.0,0.0,93,0.00,,,0.00,weatherlink.com 1.10,2013-08-04 12:44:00,
2013-08-04 05:58:00,60.5,59.0,30.05,East,91,0.0,0.0,93,0.00,,,0.00,weatherlink.com 1.10,2013-08-04 12:58:00,
2013-08-04 06:14:00,60.5,59.0,30.05,East,91,0.0,0.0,93,0.00,,,0.00,weatherlink.com 1.10,2013-08-04 13:14:00,
2013-08-04 06:28:00,60.5,59.0,30.05,East,91,0.0,0.0,93,0.00,,,0.00,weatherlink.com 1.10,2013-08-04 13:28:00,
2013-08-04 06:44:00,60.5,59.0,30.06,East,92,0.0,0.0,93,0.00,,,0.00,weatherlink.com 1.10,2013-08-04 13:44:00,
2013-08-04 06:59:00,60.7,59.0,30.06,East,92,0.0,0.0,93,0.00,,,0.00,weatherlink.com 1.10,2013-08-04 13:59:00,
2013-08-04 07:13:00,60.9,59.0,30.06,East,92,0.0,0.0,92,0.00,,,0.00,weatherlink.com 1.10,2013-08-04 14:13:00,
2013-08-04 07:29:00,61.1,59.0,30.06,East,92,0.0,0.0,93,0.00,,,0.00,weatherlink.com 1.10,2013-08-04 14:29:00,
2013-08-04 07:43:00,61.8,60.0,30.06,East,92,0.0,0.0,92,0.00,,,0.00,weatherlink.com 1.10,2013-08-04 14:43:00,
2013-08-04 07:59:00,62.6,60.0,30.06,East,92,0.0,0.0,91,0.00,,,0.00,weatherlink.com 1.10,2013-08-04 14:59:00,
2013-08-04 08:14:00,63.5,60.0,30.05,East,94,0.0,0.0,89,0.00,,,0.00,weatherlink.com 1.10,2013-08-04 15:14:00,
2013-08-04 08:29:00,66.0,61.0,30.05,East,94,0.0,0.0,84,0.00,,,0.00,weatherlink.com 1.10,2013-08-04 15:29:00,
2013-08-04 08:44:00,67.5,62.0,30.05,East,86,0.0,0.0,81,0.00,,,0.00,weatherlink.com 1.10,2013-08-04 15:44:00,
2013-08-04 08:59:00,69.3,61.0,30.05,ENE,61,0.0,0.0,74,0.00,,,0.00,weatherlink.com 1.10,2013-08-04 15:59:00,
2013-08-04 09:14:00,70.2,62.0,30.04,ENE,65,0.0,0.0,75,0.00,,,0.00,weatherlink.com 1.10,2013-08-04 16:14:00,
2013-08-04 09:29:00,71.3,63.0,30.04,NNE,21,0.0,0.0,74,0.00,,,0.00,weatherlink.com 1.10,2013-08-04 16:29:00,
2013-08-04 09:44:00,72.5,63.0,30.04,NNE,23,0.0,0.0,73,0.00,,,0.00,weatherlink.com 1.10,2013-08-04 16:44:00,
2013-08-04 09:59:00,71.8,62.0,30.03,NE,37,0.0,0.0,71,0.00,,,0.00,weatherlink.com 1.10,2013-08-04 16:59:00,
2013-08-04 10:14:00,71.5,63.0,30.03,ESE,104,0.0,0.0,74,0.00,,,0.00,weatherlink.com 1.10,2013-08-04 17:14:00,
2013-08-04 10:29:00,72.7,63.0,30.03,East,100,0.0,0.0,71,0.00,,,0.00,weatherlink.com 1.10,2013-08-04 17:29:00,
2013-08-04 10:44:00,72.9,63.0,30.03,ESE,107,0.0,0.0,70,0.00,,,0.00,weatherlink.com 1.10,2013-08-04 17:44:00,
2013-08-04 10:59:00,73.0,63.0,30.03,ESE,107,0.0,0.0,72,0.00,,,0.00,weatherlink.com 1.10,2013-08-04 17:59:00,
2013-08-04 11:14:00,72.9,63.0,30.03,ESE,104,0.0,3.0,70,0.00,,,0.00,weatherlink.com 1.10,2013-08-04 18:14:00,
2013-08-04 11:29:00,73.4,63.0,30.03,ESE,112,0.0,3.0,69,0.00,,,0.00,weatherlink.com 1.10,2013-08-04 18:29:00,
2013-08-04 11:44:00,73.4,63.0,30.02,ENE,65,0.0,6.0,70,0.00,,,0.00,weatherlink.com 1.10,2013-08-04 18:44:00,
2013-08-04 11:59:00,74.1,64.0,30.02,NE,56,0.0,3.0,71,0.00,,,0.00,weatherlink.com 1.10,2013-08-04 18:59:00,
2013-08-04 12:14:00,74.0,64.0,30.02,NNE,32,0.0,4.0,71,0.00,,,0.00,weatherlink.com 1.10,2013-08-04 19:14:00,
2013-08-04 12:30:00,73.4,63.0,30.02,ESE,113,0.0,4.0,70,0.00,,,0.00,weatherlink.com 1.10,2013-08-04 19:30:00,
2013-08-04 12:45:00,73.9,64.0,30.01,East,96,0.0,5.0,72,0.00,,,0.00,weatherlink.com 1.10,2013-08-04 19:45:00,
2013-08-04 13:00:00,74.1,64.0,30.01,East,85,1.0,4.0,70,0.00,,,0.00,weatherlink.com 1.10,2013-08-04 20:00:00,
2013-08-04 13:15:00,74.2,65.0,30.01,ENE,75,0.0,4.0,72,0.00,,,0.00,weatherlink.com 1.10,2013-08-04 20:15:00,
2013-08-04 13:30:00,75.1,65.0,30.01,East,79,0.0,3.0,70,0.00,,,0.00,weatherlink.com 1.10,2013-08-04 20:30:00,
2013-08-04 13:45:00,74.7,65.0,30.00,ENE,75,0.0,2.0,71,0.00,,,0.00,weatherlink.com 1.10,2013-08-04 20:45:00,
2013-08-04 14:00:00,75.2,64.0,30.00,East,85,0.0,3.0,68,0.00,,,0.00,weatherlink.com 1.10,2013-08-04 21:00:00,
2013-08-04 14:15:00,75.7,64.0,29.99,East,86,0.0,3.0,68,0.00,,,0.00,weatherlink.com 1.10,2013-08-04 21:15:00,
2013-08-04 14:30:00,76.3,65.0,29.99,ENE,61,0.0,4.0,68,0.00,,,0.00,weatherlink.com 1.10,2013-08-04 21:30:00,
2013-08-04 14:45:00,77.1,66.0,29.98,ESE,117,0.0,4.0,68,0.00,,,0.00,weatherlink.com 1.10,2013-08-04 21:45:00,
2013-08-04 15:00:00,77.1,65.0,29.97,East,93,0.0,3.0,67,0.00,,,0.00,weatherlink.com 1.10,2013-08-04 22:00:00,
2013-08-04 15:15:00,77.0,65.0,29.97,East,99,0.0,3.0,67,0.00,,,0.00,weatherlink.com 1.10,2013-08-04 22:15:00,
2013-08-04 15:30:00,76.9,65.0,29.97,East,98,0.0,7.0,66,0.00,,,0.00,weatherlink.com 1.10,2013-08-04 22:30:00,
2013-08-04 15:45:00,77.0,66.0,29.96,North,355,0.0,2.0,68,0.00,,,0.00,weatherlink.com 1.10,2013-08-04 22:45:00,
2013-08-04 16:00:00,76.7,64.0,29.95,SE,128,1.0,5.0,65,0.00,,,0.00,weatherlink.com 1.10,2013-08-04 23:00:00,
2013-08-04 16:15:00,77.1,65.0,29.95,NE,46,0.0,3.0,67,0.00,,,0.00,weatherlink.com 1.10,2013-08-04 23:15:00,
2013-08-04 16:30:00,77.6,66.0,29.95,SSE,155,0.0,3.0,67,0.00,,,0.00,weatherlink.com 1.10,2013-08-04 23:30:00,
2013-08-04 16:45:00,77.7,66.0,29.95,WNW,287,0.0,3.0,68,0.00,,,0.00,weatherlink.com 1.10,2013-08-04 23:45:00,
2013-08-04 17:00:00,77.9,66.0,29.95,ENE,78,2.0,5.0,66,0.00,,,0.00,weatherlink.com 1.10,2013-08-05 00:00:00,
2013-08-04 17:15:00,77.6,66.0,29.94,SE,143,0.0,6.0,67,0.00,,,0.00,weatherlink.com 1.10,2013-08-05 00:15:00,
2013-08-04 17:30:00,78.2,66.0,29.94,West,261,3.0,5.0,66,0.00,,,0.00,weatherlink.com 1.10,2013-08-05 00:30:00,
2013-08-04 17:45:00,78.3,66.0,29.94,WNW,293,0.0,2.0,65,0.00,,,0.00,weatherlink.com 1.10,2013-08-05 00:45:00,
2013-08-04 18:00:00,78.1,65.0,29.94,SSE,162,0.0,2.0,65,0.00,,,0.00,weatherlink.com 1.10,2013-08-05 01:00:00,
2013-08-04 18:15:00,76.6,65.0,29.94,SE,132,0.0,2.0,68,0.00,,,0.00,weatherlink.com 1.10,2013-08-05 01:15:00,
2013-08-04 18:30:00,74.7,65.0,29.94,SE,136,0.0,0.0,72,0.00,,,0.00,weatherlink.com 1.10,2013-08-05 01:30:00,
2013-08-04 18:45:00,73.4,65.0,29.93,SE,138,0.0,0.0,75,0.00,,,0.00,weatherlink.com 1.10,2013-08-05 01:45:00,
2013-08-04 19:00:00,72.6,65.0,29.94,South,183,0.0,0.0,76,0.00,,,0.00,weatherlink.com 1.10,2013-08-05 02:00:00,
2013-08-04 19:15:00,71.8,65.0,29.94,SSW,207,0.0,0.0,78,0.00,,,0.00,weatherlink.com 1.10,2013-08-05 02:15:00,
2013-08-04 19:30:00,71.2,64.0,29.94,SSW,209,0.0,0.0,79,0.00,,,0.00,weatherlink.com 1.10,2013-08-05 02:30:00,
2013-08-04 19:45:00,70.6,64.0,29.94,SW,221,0.0,0.0,80,0.00,,,0.00,weatherlink.com 1.10,2013-08-05 02:45:00,
2013-08-04 20:00:00,70.1,64.0,29.95,SW,224,0.0,0.0,81,0.00,,,0.00,weatherlink.com 1.10,2013-08-05 03:00:00,
2013-08-04 20:15:00,69.5,64.0,29.95,SW,224,0.0,0.0,82,0.00,,,0.00,weatherlink.com 1.10,2013-08-05 03:15:00,
2013-08-04 20:30:00,69.0,64.0,29.95,SW,224,0.0,0.0,84,0.00,,,0.00,weatherlink.com 1.10,2013-08-05 03:30:00,
2013-08-04 20:45:00,68.4,64.0,29.96,SW,224,0.0,0.0,85,0.00,,,0.00,weatherlink.com 1.10,2013-08-05 03:45:00,
2013-08-04 21:00:00,67.7,63.0,29.97,SW,224,0.0,0.0,86,0.00,,,0.00,weatherlink.com 1.10,2013-08-05 04:00:00,
2013-08-04 21:15:00,66.9,63.0,29.97,SW,224,0.0,0.0,87,0.00,,,0.00,weatherlink.com 1.10,2013-08-05 04:15:00,
2013-08-04 21:30:00,66.1,63.0,29.98,SW,224,0.0,0.0,88,0.00,,,0.00,weatherlink.com 1.10,2013-08-05 04:30:00,
2013-08-04 21:45:00,65.4,63.0,29.98,SW,225,0.0,0.0,90,0.00,,,0.00,weatherlink.com 1.10,2013-08-05 04:45:00,
2013-08-04 22:00:00,64.9,62.0,29.98,SW,225,0.0,0.0,91,0.00,,,0.00,weatherlink.com 1.10,2013-08-05 05:00:00,
2013-08-04 22:15:00,64.4,62.0,29.98,SW,225,0.0,0.0,92,0.00,,,0.00,weatherlink.com 1.10,2013-08-05 05:15:00,
2013-08-04 22:30:00,63.9,62.0,29.98,SW,225,0.0,0.0,92,0.00,,,0.00,weatherlink.com 1.10,2013-08-05 05:30:00,
2013-08-04 22:45:00,63.5,62.0,29.99,SW,225,0.0,0.0,93,0.00,,,0.00,weatherlink.com 1.10,2013-08-05 05:45:00,
2013-08-04 23:00:00,63.1,61.0,29.99,SW,225,0.0,0.0,93,0.00,,,0.00,weatherlink.com 1.10,2013-08-05 06:00:00,
2013-08-04 23:15:00,62.7,61.0,30.00,SW,225,0.0,0.0,94,0.00,,,0.00,weatherlink.com 1.10,2013-08-05 06:15:00,
2013-08-04 23:30:00,62.4,61.0,30.00,SW,225,0.0,0.0,94,0.00,,,0.00,weatherlink.com 1.10,2013-08-05 06:30:00,
2013-08-04 23:45:00,62.0,60.0,30.00,SW,225,0.0,0.0,94,0.00,,,0.00,weatherlink.com 1.10,2013-08-05 06:45:00,